Time;durP1;ratioP1;P1;durP2;ratioP2;P2;SDS_P1;SDS_P2;PMS_P1;PMS_P2;Temp;Humidity;BMP_temperature;BMP_pressure;BME280_temperature;BME280_humidity;BME280_pressure;Samples;Min_cycle;Max_cycle;Signal;HPM_P1;HPM_P2
2023/01/16 00:01:30;;;;;;;1.73;1.30;;;1.00;99.90;;;;;;6157261;23;20445;-75
2023/01/16 00:03:58;;;;;;;2.47;1.37;;;0.90;99.90;;;;;;6156839;23;20441;-77
2023/01/16 00:06:27;;;;;;;2.80;1.10;;;0.80;99.90;;;;;;6158150;23;20196;-78
2023/01/16 00:08:56;;;;;;;0.97;0.90;;;0.80;99.90;;;;;;6156677;23;21034;-77
2023/01/16 00:11:24;;;;;;;1.63;1.10;;;0.80;99.90;;;;;;6157008;23;20467;-76
2023/01/16 00:13:53;;;;;;;2.27;1.00;;;0.70;99.90;;;;;;6157303;23;20731;-75
2023/01/16 00:16:21;;;;;;;1.17;0.73;;;0.70;99.90;;;;;;6156549;23;20181;-75
2023/01/16 00:18:50;;;;;;;1.40;0.87;;;0.60;99.90;;;;;;6156727;23;20484;-76
2023/01/16 00:21:19;;;;;;;3.13;1.10;;;0.60;99.90;;;;;;6157873;23;20479;-75
2023/01/16 00:23:49;;;;;;;4.30;1.00;;;0.60;99.90;;;;;;6156322;23;20417;-76
2023/01/16 00:26:18;;;;;;;5.03;1.50;;;0.70;99.90;;;;;;6156214;23;20877;-75
2023/01/16 00:28:46;;;;;;;1.47;0.80;;;0.70;99.90;;;;;;6155838;23;20528;-74
2023/01/16 00:31:14;;;;;;;2.90;0.70;;;0.70;99.90;;;;;;6155832;23;20512;-74
2023/01/16 00:33:43;;;;;;;1.67;0.90;;;0.80;99.90;;;;;;6155280;23;20182;-76
2023/01/16 00:36:11;;;;;;;2.43;0.97;;;0.90;99.90;;;;;;6155573;23;20220;-75
2023/01/16 00:38:40;;;;;;;1.40;0.83;;;0.80;99.90;;;;;;6155099;23;20754;-75
2023/01/16 00:41:11;;;;;;;1.87;0.93;;;0.90;99.90;;;;;;6154479;23;20421;-76
2023/01/16 00:43:39;;;;;;;2.83;0.80;;;0.90;99.90;;;;;;6154574;23;20590;-75
2023/01/16 00:46:07;;;;;;;1.07;0.80;;;0.90;99.90;;;;;;6154929;23;20205;-75
2023/01/16 00:48:36;;;;;;;2.00;1.00;;;1.00;99.90;;;;;;6155428;23;20747;-76
2023/01/16 00:51:04;;;;;;;1.20;0.80;;;1.00;99.90;;;;;;6155895;23;20419;-76
2023/01/16 00:53:32;;;;;;;1.63;0.80;;;1.00;99.90;;;;;;6154452;23;20893;-77
2023/01/16 00:56:01;;;;;;;1.97;0.87;;;1.00;99.90;;;;;;6157632;23;20220;-76
2023/01/16 00:58:32;;;;;;;3.33;1.20;;;1.10;99.90;;;;;;6158596;23;20802;-76
2023/01/16 01:01:00;;;;;;;4.23;1.50;;;1.10;99.90;;;;;;6157234;23;20398;-76
2023/01/16 01:03:29;;;;;;;1.77;1.23;;;1.00;99.90;;;;;;6155020;23;20448;-75
2023/01/16 01:05:57;;;;;;;1.00;0.77;;;1.10;99.90;;;;;;6156755;23;20194;-75
2023/01/16 01:08:25;;;;;;;1.57;0.93;;;1.10;99.90;;;;;;6157486;23;20449;-75
2023/01/16 01:10:53;;;;;;;1.67;0.97;;;1.10;99.90;;;;;;6158561;23;20408;-77
2023/01/16 01:13:21;;;;;;;1.87;0.97;;;1.00;99.90;;;;;;6166037;23;20182;-75
2023/01/16 01:15:52;;;;;;;1.77;1.00;;;1.10;99.90;;;;;;6166427;23;20408;-77
2023/01/16 01:18:20;;;;;;;0.90;0.70;;;1.20;99.90;;;;;;6164299;23;20455;-77
2023/01/16 01:20:48;;;;;;;1.23;0.80;;;1.10;99.90;;;;;;6163248;23;20417;-77
2023/01/16 01:23:16;;;;;;;2.30;0.83;;;1.10;99.90;;;;;;6166060;23;20405;-78
2023/01/16 01:25:45;;;;;;;1.13;0.77;;;1.10;99.90;;;;;;6164631;23;20861;-76
2023/01/16 01:28:13;;;;;;;1.20;0.70;;;1.10;99.90;;;;;;6165518;23;20465;-76
2023/01/16 01:30:42;;;;;;;4.43;0.97;;;1.20;99.90;;;;;;6156523;23;20421;-74
2023/01/16 01:33:11;;;;;;;0.73;0.67;;;1.20;99.90;;;;;;6156033;23;20417;-76
2023/01/16 01:35:40;;;;;;;1.13;0.70;;;1.30;99.90;;;;;;6156177;23;20564;-76
2023/01/16 01:38:08;;;;;;;2.93;0.90;;;1.20;99.90;;;;;;6156571;23;20956;-75
2023/01/16 01:40:36;;;;;;;1.03;0.60;;;1.20;99.90;;;;;;6159037;23;20185;-77
2023/01/16 01:43:12;;;;;;;1.83;0.80;;;1.20;99.90;;;;;;6158719;23;20189;-77
2023/01/16 01:45:41;;;;;;;0.87;0.80;;;1.20;99.90;;;;;;6158288;23;20260;-77
2023/01/16 01:48:20;;;;;;;2.10;0.90;;;1.10;99.90;;;;;;6157931;23;20273;-77
2023/01/16 01:50:52;;;;;;;2.97;0.90;;;1.10;99.90;;;;;;6163646;23;20229;-76
2023/01/16 01:53:26;;;;;;;1.07;0.80;;;1.10;99.90;;;;;;6171887;23;20178;-78
2023/01/16 01:55:56;;;;;;;1.47;0.90;;;1.10;99.90;;;;;;6169402;23;20191;-75
2023/01/16 01:58:27;;;;;;;3.60;1.00;;;1.00;99.90;;;;;;6158751;23;20178;-76
2023/01/16 02:01:00;;;;;;;1.87;0.80;;;1.00;99.90;;;;;;6157422;23;20546;-75
2023/01/16 02:03:33;;;;;;;1.93;0.87;;;1.00;99.90;;;;;;6155355;23;20754;-76
2023/01/16 02:06:06;;;;;;;3.57;0.70;;;1.00;99.90;;;;;;6155623;23;20452;-75
2023/01/16 02:08:36;;;;;;;1.03;0.70;;;1.00;99.90;;;;;;6155573;23;20515;-76
2023/01/16 02:11:08;;;;;;;1.60;0.77;;;1.00;99.90;;;;;;6155617;23;20256;-76
2023/01/16 02:13:39;;;;;;;1.80;0.80;;;1.00;99.90;;;;;;6155571;23;20502;-76
2023/01/16 02:22:05;;;;;;;2.67;0.90;;;0.90;99.90;;;;;;6154989;23;20256;-77
2023/01/16 02:25:06;;;;;;;1.43;0.80;;;0.90;99.90;;;;;;6153394;23;20660;-76
2023/01/16 02:28:08;;;;;;;2.53;1.00;;;0.90;99.90;;;;;;6137214;23;20181;-74
2023/01/16 02:31:15;;;;;;;0.67;0.67;;;0.90;99.90;;;;;;6154557;23;20260;-76
2023/01/16 02:33:58;;;;;;;1.97;0.90;;;0.90;99.90;;;;;;6153747;23;20928;-76
2023/01/16 02:36:35;;;;;;;1.97;0.90;;;0.80;99.90;;;;;;6155829;23;20664;-75
2023/01/16 02:39:12;;;;;;;1.47;0.77;;;0.80;99.90;;;;;;6154511;23;20850;-75
2023/01/16 02:41:49;;;;;;;1.80;0.80;;;0.70;99.90;;;;;;6156324;23;20762;-78
2023/01/16 02:44:26;;;;;;;1.23;0.90;;;0.80;99.90;;;;;;6166431;23;20421;-78
2023/01/16 02:47:14;;;;;;;3.40;1.00;;;0.70;99.90;;;;;;6164677;23;20192;-79
2023/01/16 02:49:49;;;;;;;2.10;1.33;;;0.70;99.90;;;;;;6165369;23;20245;-78
2023/01/16 02:52:24;;;;;;;0.80;0.60;;;0.70;99.90;;;;;;6159261;23;20413;-78
2023/01/16 02:54:58;;;;;;;1.90;0.70;;;0.60;99.90;;;;;;6156045;23;20236;-76
2023/01/16 02:57:34;;;;;;;1.67;0.83;;;0.60;99.90;;;;;;6156236;23;20423;-76
2023/01/16 03:00:05;;;;;;;0.50;0.50;;;0.60;99.90;;;;;;6155416;23;20602;-75
2023/01/16 03:02:35;;;;;;;1.00;0.90;;;0.60;99.90;;;;;;6155208;23;20751;-74
2023/01/16 03:05:03;;;;;;;2.67;0.87;;;0.60;99.90;;;;;;6154700;23;20422;-74
2023/01/16 03:08:08;;;;;;;1.50;0.83;;;0.60;99.90;;;;;;6155723;23;20425;-75
2023/01/16 03:11:04;;;;;;;1.33;0.50;;;0.60;99.90;;;;;;6155488;23;20886;-75
2023/01/16 03:13:47;;;;;;;0.80;0.80;;;0.60;99.90;;;;;;6154757;23;20405;-75
2023/01/16 03:16:26;;;;;;;3.90;1.00;;;0.60;99.90;;;;;;6154230;23;20924;-75
2023/01/16 03:19:10;;;;;;;1.57;0.77;;;0.50;99.90;;;;;;6155432;23;20456;-76
2023/01/16 03:21:53;;;;;;;1.20;0.70;;;0.50;99.90;;;;;;6155419;23;20176;-77
2023/01/16 03:24:33;;;;;;;0.77;0.60;;;0.50;99.90;;;;;;6159631;23;20504;-77
2023/01/16 03:27:09;;;;;;;0.90;0.80;;;0.50;99.90;;;;;;6159102;23;20480;-79
2023/01/16 03:29:45;;;;;;;1.33;0.70;;;0.50;99.90;;;;;;6158450;23;20449;-76
2023/01/16 03:32:23;;;;;;;1.37;0.87;;;0.50;99.90;;;;;;6157808;23;20393;-79
2023/01/16 03:34:58;;;;;;;2.93;0.90;;;0.40;99.90;;;;;;6157630;23;20382;-78
2023/01/16 03:37:34;;;;;;;2.97;0.70;;;0.50;99.90;;;;;;6157822;23;20818;-78
2023/01/16 03:40:05;;;;;;;1.10;0.80;;;0.40;99.90;;;;;;6158299;23;20193;-79
2023/01/16 03:42:37;;;;;;;1.30;0.77;;;0.40;99.90;;;;;;6157942;23;20409;-79
2023/01/16 03:45:10;;;;;;;1.67;0.50;;;0.40;99.90;;;;;;6158211;23;20417;-77
2023/01/16 03:47:43;;;;;;;1.00;0.77;;;0.40;99.90;;;;;;6174002;23;20389;-78
2023/01/16 03:50:15;;;;;;;2.03;0.70;;;0.40;99.90;;;;;;6165865;23;20193;-77
2023/01/16 03:52:48;;;;;;;1.10;0.80;;;0.40;99.90;;;;;;6177233;23;20187;-76
2023/01/16 03:55:20;;;;;;;1.13;0.80;;;0.40;99.90;;;;;;6178269;23;20397;-75
2023/01/16 03:57:52;;;;;;;1.27;0.80;;;0.40;99.90;;;;;;6176925;23;20477;-76
2023/01/16 04:00:22;;;;;;;1.07;0.70;;;0.30;99.90;;;;;;6166640;23;20881;-79
2023/01/16 04:02:57;;;;;;;1.37;0.80;;;0.30;99.90;;;;;;6158775;23;20512;-78
2023/01/16 04:05:30;;;;;;;0.80;0.70;;;0.30;99.90;;;;;;6158621;23;20435;-77
2023/01/16 04:08:02;;;;;;;2.20;0.90;;;0.20;99.90;;;;;;6157112;23;20443;-79
2023/01/16 04:10:32;;;;;;;1.37;1.00;;;0.20;99.90;;;;;;6157645;23;20483;-79
2023/01/16 04:13:06;;;;;;;1.60;0.90;;;0.10;99.90;;;;;;6158009;23;20423;-79
2023/01/16 04:15:36;;;;;;;1.60;0.90;;;0.10;99.90;;;;;;6157889;23;20393;-78
2023/01/16 04:18:05;;;;;;;2.07;0.97;;;0.10;99.90;;;;;;6157389;23;20421;-79
2023/01/16 04:20:36;;;;;;;1.33;0.90;;;0.10;99.90;;;;;;6157137;23;20494;-76
2023/01/16 04:23:05;;;;;;;1.97;1.10;;;0.20;99.90;;;;;;6157841;23;20439;-76
2023/01/16 04:25:33;;;;;;;1.80;0.90;;;0.20;99.90;;;;;;6157569;23;20963;-78
2023/01/16 04:28:01;;;;;;;1.07;0.97;;;0.10;99.90;;;;;;6156277;23;20476;-78
2023/01/16 04:30:29;;;;;;;1.63;0.97;;;0.10;99.90;;;;;;6156964;23;20492;-79
2023/01/16 04:33:01;;;;;;;1.00;0.90;;;0.10;99.90;;;;;;6157568;23;20728;-79
2023/01/16 04:35:29;;;;;;;1.27;1.10;;;0.00;99.90;;;;;;6157043;23;20492;-78
2023/01/16 04:37:58;;;;;;;0.97;0.87;;;0.00;99.90;;;;;;6156914;23;20548;-77
2023/01/16 04:40:27;;;;;;;1.20;1.10;;;0.10;99.90;;;;;;6157491;23;20419;-79
2023/01/16 04:42:56;;;;;;;3.97;1.63;;;0.00;99.90;;;;;;6156147;23;20483;-78
2023/01/16 04:45:25;;;;;;;2.53;1.20;;;0.00;99.90;;;;;;6171818;23;20408;-77
2023/01/16 04:47:53;;;;;;;2.40;1.30;;;0.00;99.90;;;;;;6168355;23;20425;-76
2023/01/16 04:50:21;;;;;;;1.97;1.43;;;0.00;99.90;;;;;;6159033;23;20476;-79
2023/01/16 04:52:49;;;;;;;2.77;1.80;;;0.00;99.90;;;;;;6156263;23;20878;-77
2023/01/16 04:55:20;;;;;;;2.43;1.83;;;0.00;99.90;;;;;;6156405;23;20428;-77
2023/01/16 04:57:48;;;;;;;4.67;1.90;;;0.00;99.90;;;;;;6156208;23;20474;-77
2023/01/16 05:00:17;;;;;;;3.17;1.90;;;0.00;99.90;;;;;;6157059;23;20508;-80
2023/01/16 05:02:45;;;;;;;2.93;1.63;;;0.00;99.90;;;;;;6155468;23;20513;-80
2023/01/16 05:05:14;;;;;;;1.33;1.23;;;0.00;99.90;;;;;;6155091;23;20909;-79
2023/01/16 05:07:42;;;;;;;1.87;1.07;;;0.00;99.90;;;;;;6155566;23;20421;-76
2023/01/16 05:10:11;;;;;;;3.03;1.40;;;0.00;99.90;;;;;;6156669;23;20480;-79
2023/01/16 05:12:40;;;;;;;1.87;1.57;;;0.00;99.90;;;;;;6156955;23;20513;-79
2023/01/16 05:15:10;;;;;;;1.70;1.50;;;-0.10;99.90;;;;;;6156122;23;20484;-78
2023/01/16 05:17:38;;;;;;;2.10;1.23;;;-0.10;99.90;;;;;;6156438;23;20729;-79
2023/01/16 05:20:08;;;;;;;2.27;1.40;;;-0.10;99.90;;;;;;6157055;23;20423;-79
2023/01/16 05:25:11;;;;;;;2.13;1.30;;;-0.10;99.90;;;;;;6117298;23;20451;-77
2023/01/16 05:27:41;;;;;;;2.00;1.30;;;-0.10;99.90;;;;;;6184238;23;20401;-79
2023/01/16 05:30:11;;;;;;;1.60;1.50;;;-0.10;99.90;;;;;;6191328;23;20522;-78
2023/01/16 05:32:39;;;;;;;3.10;1.50;;;-0.10;99.90;;;;;;6194355;23;20427;-79
2023/01/16 05:35:08;;;;;;;3.90;1.67;;;0.00;99.90;;;;;;6192727;23;20442;-76
2023/01/16 05:37:36;;;;;;;1.67;1.13;;;0.00;99.90;;;;;;6185725;23;20426;-76
2023/01/16 05:40:05;;;;;;;2.93;1.20;;;0.10;99.90;;;;;;6184253;23;20404;-76
2023/01/16 05:42:34;;;;;;;1.10;0.90;;;0.10;99.90;;;;;;6188133;23;20411;-79
2023/01/16 05:45:04;;;;;;;4.70;1.17;;;0.10;99.90;;;;;;6194199;23;20903;-78
2023/01/16 05:47:32;;;;;;;1.40;1.20;;;0.00;99.90;;;;;;6188211;23;20776;-79
2023/01/16 05:50:01;;;;;;;1.43;1.30;;;0.10;99.90;;;;;;6186139;23;20538;-78
2023/01/16 05:52:29;;;;;;;3.43;1.80;;;0.00;99.90;;;;;;6185399;23;20423;-76
2023/01/16 05:54:57;;;;;;;2.47;1.80;;;0.00;99.90;;;;;;6185350;23;20408;-75
2023/01/16 05:57:25;;;;;;;2.40;1.43;;;0.00;99.90;;;;;;6185541;23;20410;-76
2023/01/16 05:59:54;;;;;;;1.73;1.30;;;0.00;99.90;;;;;;6184833;23;20741;-76
2023/01/16 06:02:23;;;;;;;2.03;1.30;;;-0.10;99.90;;;;;;6185203;23;20420;-75
2023/01/16 06:04:52;;;;;;;1.57;1.20;;;0.00;99.90;;;;;;6185307;23;20934;-77
2023/01/16 06:07:21;;;;;;;1.33;1.20;;;-0.10;99.90;;;;;;6185495;23;20411;-75
2023/01/16 06:09:49;;;;;;;1.73;1.47;;;0.00;99.90;;;;;;6185173;23;20419;-76
2023/01/16 06:12:18;;;;;;;3.93;1.70;;;-0.10;99.90;;;;;;6185577;23;20423;-77
2023/01/16 06:14:47;;;;;;;2.47;1.70;;;-0.10;99.90;;;;;;6187792;23;20503;-76
2023/01/16 06:17:16;;;;;;;3.13;1.80;;;-0.20;99.90;;;;;;6190413;23;20400;-77
2023/01/16 06:19:47;;;;;;;2.97;1.90;;;-0.20;99.90;;;;;;6190463;23;20491;-77
2023/01/16 06:22:15;;;;;;;3.10;1.70;;;-0.20;99.90;;;;;;6189827;23;20733;-78
2023/01/16 06:24:43;;;;;;;2.37;1.70;;;-0.20;99.90;;;;;;6188122;23;20451;-76
2023/01/16 06:27:11;;;;;;;3.27;1.83;;;-0.20;99.90;;;;;;6189720;23;20417;-78
2023/01/16 06:29:41;;;;;;;1.70;1.30;;;-0.30;99.90;;;;;;6188286;23;20443;-78
2023/01/16 06:32:09;;;;;;;1.33;1.23;;;-0.30;99.90;;;;;;6187384;23;20403;-77
2023/01/16 06:34:38;;;;;;;1.30;1.20;;;-0.30;99.90;;;;;;6186220;23;20427;-77
2023/01/16 06:37:07;;;;;;;1.97;1.30;;;-0.20;99.90;;;;;;6188702;23;20409;-78
2023/01/16 06:39:35;;;;;;;2.27;1.20;;;-0.10;99.90;;;;;;6187174;23;20930;-78
2023/01/16 06:42:05;;;;;;;2.93;1.40;;;-0.10;99.90;;;;;;6191562;23;20696;-78
2023/01/16 06:44:33;;;;;;;1.30;1.20;;;-0.10;99.90;;;;;;6187827;23;20397;-78
2023/01/16 06:47:02;;;;;;;1.53;1.23;;;-0.10;99.90;;;;;;6186185;23;20438;-78
2023/01/16 06:49:30;;;;;;;1.40;1.30;;;-0.20;99.90;;;;;;6186877;23;20499;-77
2023/01/16 06:51:59;;;;;;;3.13;1.60;;;-0.30;99.90;;;;;;6187612;23;20811;-80
2023/01/16 06:54:29;;;;;;;4.03;1.80;;;-0.30;99.90;;;;;;6187477;23;20403;-78
2023/01/16 06:56:57;;;;;;;2.80;2.10;;;-0.20;99.90;;;;;;6186981;23;20531;-77
2023/01/16 06:59:26;;;;;;;3.87;2.50;;;-0.40;99.90;;;;;;6187368;23;20414;-78
2023/01/16 07:01:54;;;;;;;3.07;2.00;;;-0.40;99.90;;;;;;6186771;23;20416;-78
2023/01/16 07:04:22;;;;;;;2.03;1.70;;;-0.40;99.90;;;;;;6185687;23;20461;-79
2023/01/16 07:06:51;;;;;;;4.03;2.00;;;-0.40;99.90;;;;;;6195559;23;20403;-76
2023/01/16 07:09:25;;;;;;;2.50;1.70;;;-0.50;99.90;;;;;;6198940;23;20491;-78
2023/01/16 07:11:54;;;;;;;2.93;1.53;;;-0.50;99.90;;;;;;6200497;23;20458;-76
2023/01/16 07:22:44;;;;;;;3.50;1.30;;;-0.50;99.90;;;;;;6193411;23;20395;-77
2023/01/16 07:25:16;;;;;;;1.40;1.20;;;-0.50;99.90;;;;;;6194361;23;20463;-73
2023/01/16 07:27:48;;;;;;;1.77;1.00;;;-0.60;99.90;;;;;;6193808;23;20438;-77
2023/01/16 07:30:17;;;;;;;1.73;1.10;;;-0.50;99.90;;;;;;6195352;23;20816;-74
2023/01/16 07:32:47;;;;;;;1.60;1.30;;;-0.60;99.90;;;;;;6197517;23;20416;-75
2023/01/16 07:35:15;;;;;;;1.80;1.47;;;-0.50;99.90;;;;;;6197420;23;20420;-75
2023/01/16 07:37:45;;;;;;;3.60;1.60;;;-0.50;99.90;;;;;;6198921;23;20436;-76
2023/01/16 07:40:14;;;;;;;1.97;1.50;;;-0.50;99.90;;;;;;6197001;23;20897;-77
2023/01/16 07:42:42;;;;;;;2.90;1.97;;;-0.50;99.90;;;;;;6189762;23;20411;-75
2023/01/16 07:45:12;;;;;;;2.03;1.70;;;-0.50;99.90;;;;;;6189172;23;20970;-77
2023/01/16 07:47:40;;;;;;;2.87;1.80;;;-0.50;99.90;;;;;;6189942;23;20462;-75
2023/01/16 07:50:09;;;;;;;2.73;1.70;;;-0.50;99.90;;;;;;6188841;23;20412;-75
2023/01/16 07:52:37;;;;;;;2.53;1.70;;;-0.50;99.90;;;;;;6188313;23;20765;-76
2023/01/16 07:55:06;;;;;;;4.17;1.87;;;-0.50;99.90;;;;;;6188315;23;20499;-74
2023/01/16 07:57:36;;;;;;;2.40;1.43;;;-0.40;99.90;;;;;;6187868;23;20496;-76
2023/01/16 08:00:06;;;;;;;1.87;1.30;;;-0.20;99.90;;;;;;6187995;23;20440;-76
2023/01/16 08:02:35;;;;;;;1.93;1.33;;;0.00;99.90;;;;;;6186831;23;20396;-77
2023/01/16 08:05:03;;;;;;;2.37;1.60;;;0.20;99.90;;;;;;6185177;23;20761;-75
2023/01/16 08:07:32;;;;;;;2.53;1.70;;;0.70;99.90;;;;;;6184595;23;20443;-76
2023/01/16 08:10:00;;;;;;;1.83;1.57;;;1.30;99.90;;;;;;6184896;23;20424;-75
2023/01/16 08:12:28;;;;;;;1.60;1.50;;;1.80;99.90;;;;;;6185782;23;20256;-76
2023/01/16 08:14:56;;;;;;;1.27;1.17;;;2.40;99.90;;;;;;6186666;23;20188;-73
2023/01/16 08:17:24;;;;;;;1.40;1.30;;;3.00;99.90;;;;;;6186562;23;20194;-76
2023/01/16 08:19:54;;;;;;;2.87;1.57;;;3.30;99.90;;;;;;6185566;23;20183;-76
2023/01/16 08:22:22;;;;;;;1.40;1.30;;;3.80;99.90;;;;;;6186286;23;20189;-76
2023/01/16 08:24:50;;;;;;;2.63;1.47;;;4.30;99.90;;;;;;6185753;23;20209;-77
2023/01/16 08:27:18;;;;;;;2.27;1.30;;;4.40;99.90;;;;;;6184520;23;20181;-79
2023/01/16 08:29:49;;;;;;;2.03;1.60;;;4.90;99.90;;;;;;6185464;23;20208;-78
2023/01/16 08:32:17;;;;;;;4.57;1.63;;;5.50;99.90;;;;;;6188805;23;20201;-79
2023/01/16 08:34:46;;;;;;;2.53;1.50;;;6.00;99.90;;;;;;6188764;23;20417;-79
2023/01/16 08:37:15;;;;;;;2.43;1.53;;;6.40;99.90;;;;;;6186058;23;20211;-78
2023/01/16 08:39:43;;;;;;;2.13;1.53;;;5.90;99.90;;;;;;6185849;23;20576;-79
2023/01/16 08:53:26;;;;;;;3.50;1.80;;;7.40;99.90;;;;;;6161442;23;20353;-78
2023/01/16 08:55:54;;;;;;;2.10;1.60;;;7.00;99.90;;;;;;6183971;23;20260;-76
2023/01/16 08:58:23;;;;;;;1.53;1.40;;;7.70;99.90;;;;;;6181723;23;20191;-80
2023/01/16 09:00:52;;;;;;;2.10;1.40;;;8.80;99.90;;;;;;6183706;23;20184;-80
2023/01/16 09:03:20;;;;;;;2.33;1.50;;;8.50;99.90;;;;;;6184703;23;20179;-78
2023/01/16 09:05:48;;;;;;;2.13;1.50;;;8.80;99.90;;;;;;6185840;23;20485;-81
2023/01/16 09:08:17;;;;;;;2.40;1.93;;;9.90;99.90;;;;;;6185210;23;20256;-76
2023/01/16 09:13:48;;;;;;;3.50;1.60;;;9.70;99.90;;;;;;6185062;23;20260;-80
2023/01/16 09:13:48;;;;;;;1.70;1.40;;;9.30;99.90;;;;;;6184104;23;20620;-78
2023/01/16 09:16:17;;;;;;;2.97;1.80;;;9.00;99.90;;;;;;6184215;23;20553;-79
2023/01/16 09:18:46;;;;;;;3.37;1.93;;;7.10;99.90;;;;;;6186504;23;20184;-77
2023/01/16 09:21:14;;;;;;;3.17;1.80;;;5.80;99.90;;;;;;6186260;23;20231;-77
2023/01/16 09:23:43;;;;;;;2.50;1.80;;;5.30;99.90;;;;;;6186385;23;20185;-76
2023/01/16 09:26:12;;;;;;;3.07;2.00;;;4.50;99.90;;;;;;6185435;23;20589;-74
2023/01/16 09:28:41;;;;;;;2.90;1.83;;;4.00;99.90;;;;;;6186209;23;20633;-75
2023/01/16 09:31:10;;;;;;;2.87;1.90;;;3.50;99.90;;;;;;6186880;23;20181;-74
2023/01/16 09:33:38;;;;;;;3.50;1.93;;;3.40;99.90;;;;;;6186159;23;20173;-77
2023/01/16 09:36:07;;;;;;;2.10;1.70;;;3.20;99.90;;;;;;6186082;23;20181;-76
2023/01/16 09:38:35;;;;;;;3.13;2.10;;;3.00;99.90;;;;;;6184580;23;20219;-79
2023/01/16 09:41:03;;;;;;;2.93;2.10;;;3.00;99.90;;;;;;6186442;23;20191;-76
2023/01/16 09:43:35;;;;;;;2.77;2.20;;;3.00;99.90;;;;;;6184680;23;20187;-77
2023/01/16 09:46:07;;;;;;;4.43;2.50;;;3.20;99.90;;;;;;6186008;23;20200;-77
2023/01/16 09:48:40;;;;;;;4.27;2.07;;;3.30;99.90;;;;;;6186398;23;20169;-76
2023/01/16 09:51:14;;;;;;;2.97;2.00;;;4.00;99.90;;;;;;6186379;23;20165;-79
2023/01/16 09:59:32;;;;;;;1.73;1.60;;;7.50;99.90;;;;;;6153634;23;20284;-78
2023/01/16 10:02:10;;;;;;;1.80;1.70;;;7.90;99.90;;;;;;6155829;23;20197;-75
2023/01/16 10:04:39;;;;;;;2.73;1.90;;;8.40;99.90;;;;;;6156745;23;20316;-77
2023/01/16 10:07:31;;;;;;;2.63;1.70;;;8.80;99.90;;;;;;6155176;23;20197;-78
2023/01/16 10:10:07;;;;;;;2.50;1.70;;;8.70;99.90;;;;;;6156214;23;20170;-76
2023/01/16 10:12:37;;;;;;;1.60;1.50;;;9.00;99.90;;;;;;6154298;23;20192;-76
2023/01/16 10:15:17;;;;;;;2.60;1.50;;;8.60;99.90;;;;;;6156076;23;20537;-78
2023/01/16 10:17:56;;;;;;;1.60;1.50;;;7.90;99.90;;;;;;6155871;23;20665;-76
2023/01/16 10:20:42;;;;;;;1.77;1.40;;;8.00;99.90;;;;;;6153339;23;20205;-77
2023/01/16 10:23:27;;;;;;;2.60;1.70;;;7.80;99.90;;;;;;6155721;23;20201;-79
2023/01/16 10:26:04;;;;;;;2.27;1.50;;;7.90;99.90;;;;;;6155774;23;20190;-79
2023/01/16 10:28:46;;;;;;;2.97;2.10;;;7.80;99.90;;;;;;6155339;23;20177;-77
2023/01/16 10:31:23;;;;;;;2.43;1.60;;;7.10;99.90;;;;;;6155358;23;20605;-78
2023/01/16 10:33:56;;;;;;;2.17;1.70;;;7.20;99.90;;;;;;6156014;23;20220;-78
2023/01/16 10:36:29;;;;;;;3.73;1.40;;;6.80;99.90;;;;;;6156120;23;20198;-77
2023/01/16 10:39:00;;;;;;;3.40;1.87;;;6.30;99.90;;;;;;6155087;23;20170;-77
2023/01/16 10:50:06;;;;;;;1.43;1.30;;;6.70;99.90;;;;;;6156055;23;20662;-78
2023/01/16 10:52:35;;;;;;;3.40;1.80;;;8.10;99.90;;;;;;6155204;23;20657;-76
2023/01/16 10:55:04;;;;;;;2.67;1.63;;;7.70;99.90;;;;;;6155732;23;20197;-77
2023/01/16 10:57:36;;;;;;;2.97;1.40;;;7.50;99.90;;;;;;6154737;23;20673;-77
2023/01/16 11:00:09;;;;;;;1.47;1.17;;;7.50;99.90;;;;;;6154615;23;20641;-75
2023/01/16 11:02:43;;;;;;;2.17;1.40;;;8.00;99.90;;;;;;6156225;23;20629;-77
2023/01/16 11:05:25;;;;;;;1.50;1.40;;;8.60;99.90;;;;;;6155196;23;20173;-79
2023/01/16 11:07:54;;;;;;;5.20;1.63;;;9.30;99.90;;;;;;6155430;23;20269;-77
2023/01/16 11:10:24;;;;;;;2.37;1.30;;;9.30;99.90;;;;;;6155362;23;20197;-77
2023/01/16 11:18:32;;;;;;;1.87;1.13;;;10.70;99.90;;;;;;6155162;23;20177;-77
2023/01/16 11:21:13;;;;;;;2.47;1.60;;;11.20;99.10;;;;;;6155689;23;20205;-79
2023/01/16 11:23:44;;;;;;;1.87;1.40;;;10.70;98.70;;;;;;6154812;23;20276;-77
2023/01/16 11:26:13;;;;;;;1.30;1.20;;;11.30;97.50;;;;;;6155636;23;20221;-77
2023/01/16 11:28:47;;;;;;;1.80;1.20;;;10.70;96.60;;;;;;6155934;23;20182;-78
2023/01/16 11:31:21;;;;;;;1.87;1.37;;;9.50;98.90;;;;;;6154194;23;20624;-76
2023/01/16 11:33:57;;;;;;;1.90;1.20;;;9.60;99.90;;;;;;6155320;23;20215;-77
2023/01/16 11:36:26;;;;;;;2.53;1.30;;;9.70;99.10;;;;;;6156303;23;20172;-77
2023/01/16 11:38:55;;;;;;;1.20;1.10;;;9.10;99.50;;;;;;6155432;23;20182;-76
2023/01/16 11:41:28;;;;;;;2.30;1.10;;;8.80;99.90;;;;;;6157663;23;20177;-78
2023/01/16 11:47:01;;;;;;;2.33;1.30;;;9.50;99.90;;;;;;6156912;23;20193;-77
2023/01/16 11:49:36;;;;;;;1.97;1.40;;;9.50;99.90;;;;;;6154374;23;20633;-76
2023/01/16 11:52:05;;;;;;;3.57;2.07;;;10.10;99.20;;;;;;6154967;23;20168;-79
2023/01/16 11:54:35;;;;;;;2.47;1.80;;;10.30;97.80;;;;;;6154897;23;20211;-77
2023/01/16 11:57:19;;;;;;;2.20;1.20;;;10.30;98.60;;;;;;6153826;23;20679;-76
2023/01/16 12:00:10;;;;;;;1.47;1.00;;;10.40;96.10;;;;;;6153789;23;20272;-77
2023/01/16 12:03:04;;;;;;;1.30;1.10;;;9.90;97.50;;;;;;6155454;23;20225;-77
2023/01/16 12:05:54;;;;;;;2.57;1.30;;;9.30;98.70;;;;;;6154318;23;20201;-77
2023/01/16 12:08:42;;;;;;;1.80;1.10;;;8.90;99.90;;;;;;6154890;23;20218;-77
2023/01/16 12:11:16;;;;;;;2.67;1.63;;;8.10;99.90;;;;;;6154932;23;20190;-77
2023/01/16 12:16:48;;;;;;;1.20;1.10;;;7.30;99.90;;;;;;6154922;23;20525;-76
2023/01/16 12:19:45;;;;;;;1.83;1.07;;;7.30;99.90;;;;;;6155033;23;20166;-76
2023/01/16 12:22:22;;;;;;;1.30;1.20;;;6.80;99.90;;;;;;6154562;23;20189;-77
2023/01/16 12:24:57;;;;;;;1.53;1.27;;;6.80;99.90;;;;;;6154547;23;20659;-77
2023/01/16 12:27:40;;;;;;;4.00;1.60;;;6.90;99.90;;;;;;6154888;23;20212;-79
2023/01/16 12:30:22;;;;;;;1.33;0.87;;;6.80;99.90;;;;;;6153989;23;20495;-79
2023/01/16 12:33:01;;;;;;;1.07;0.97;;;6.50;99.90;;;;;;6154438;23;20193;-77
2023/01/16 12:35:41;;;;;;;1.67;1.20;;;6.50;99.90;;;;;;6155076;23;20166;-78
2023/01/16 12:38:16;;;;;;;1.17;0.90;;;6.70;99.90;;;;;;6155369;23;20224;-77
2023/01/16 12:44:15;;;;;;;1.43;1.10;;;6.30;99.90;;;;;;6153108;23;20188;-76
2023/01/16 12:46:54;;;;;;;1.60;1.10;;;6.20;99.90;;;;;;6155193;23;20170;-78
2023/01/16 12:49:37;;;;;;;1.20;1.10;;;6.20;99.90;;;;;;6153646;23;20181;-79
2023/01/16 12:52:21;;;;;;;1.50;1.40;;;6.40;99.90;;;;;;6159149;23;20170;-78
2023/01/16 12:55:06;;;;;;;1.67;0.90;;;6.40;99.90;;;;;;6156655;23;20209;-76
2023/01/16 12:58:03;;;;;;;1.70;0.90;;;6.70;99.90;;;;;;6157020;23;20193;-77
2023/01/16 13:00:39;;;;;;;1.83;1.00;;;6.80;99.90;;;;;;6136545;23;20189;-76
2023/01/16 13:03:16;;;;;;;1.13;0.90;;;6.70;99.90;;;;;;6156529;23;20187;-76
2023/01/16 13:05:46;;;;;;;1.03;0.90;;;6.80;99.90;;;;;;6155924;23;20205;-79
2023/01/16 13:08:20;;;;;;;0.90;0.90;;;6.70;99.90;;;;;;6155813;23;20186;-77
2023/01/16 13:13:49;;;;;;;1.13;1.00;;;6.30;99.90;;;;;;6155634;23;20189;-76
2023/01/16 13:16:24;;;;;;;1.00;0.90;;;6.20;99.90;;;;;;6154561;23;20190;-78
2023/01/16 13:18:56;;;;;;;1.33;1.00;;;6.10;99.90;;;;;;6157062;23;20166;-77
2023/01/16 13:21:28;;;;;;;1.30;0.90;;;6.10;99.90;;;;;;6154692;23;20240;-79
2023/01/16 13:23:59;;;;;;;1.73;1.07;;;6.10;99.90;;;;;;6155889;23;20494;-78
2023/01/16 13:26:31;;;;;;;2.77;0.90;;;6.00;99.90;;;;;;6156058;23;20694;-78
2023/01/16 13:29:07;;;;;;;2.10;0.77;;;6.10;99.90;;;;;;6156092;23;20248;-77
2023/01/16 13:31:38;;;;;;;0.97;0.80;;;6.10;99.90;;;;;;6155018;23;20161;-77
2023/01/16 13:34:15;;;;;;;1.13;1.03;;;6.00;99.90;;;;;;6156170;23;20212;-76
2023/01/16 13:37:28;;;;;;;1.80;0.90;;;5.90;99.90;;;;;;6155345;23;20181;-77
2023/01/16 13:40:21;;;;;;;1.77;0.90;;;5.90;99.90;;;;;;6065818;23;20589;-76
2023/01/16 13:45:47;;;;;;;1.00;0.90;;;5.80;99.90;;;;;;6065200;23;20247;-78
2023/01/16 13:45:48;;;;;;;4.57;2.70;;;5.80;99.90;;;;;;6141495;23;20190;-77
2023/01/16 13:48:20;;;;;;;4.73;1.87;;;5.80;99.90;;;;;;6156078;23;20190;-77
2023/01/16 13:50:55;;;;;;;3.13;1.80;;;5.80;99.90;;;;;;6156495;23;20192;-77
2023/01/16 13:53:26;;;;;;;2.07;1.60;;;5.80;99.90;;;;;;6155930;23;20180;-77
2023/01/16 13:56:06;;;;;;;2.73;1.30;;;5.70;99.90;;;;;;6156330;23;20547;-77
2023/01/16 13:58:39;;;;;;;5.23;2.03;;;5.70;99.90;;;;;;6155898;23;20264;-77
2023/01/16 14:01:37;;;;;;;2.03;1.37;;;5.70;99.90;;;;;;6154137;23;20169;-77
2023/01/16 14:04:27;;;;;;;10.67;3.57;;;5.60;99.90;;;;;;6152727;23;20201;-77
2023/01/16 14:10:12;;;;;;;11.53;5.10;;;5.40;99.90;;;;;;6155520;23;20185;-79
2023/01/16 14:12:43;;;;;;;1.43;1.30;;;5.50;99.90;;;;;;6156123;23;20174;-79
2023/01/16 14:18:17;;;;;;;5.17;2.93;;;5.40;99.90;;;;;;6154236;23;20233;-78
2023/01/16 14:20:52;;;;;;;3.23;1.90;;;5.40;99.90;;;;;;6154697;23;20200;-78
2023/01/16 14:26:17;;;;;;;3.57;1.77;;;5.30;99.90;;;;;;6155131;23;20166;-79
2023/01/16 14:28:48;;;;;;;3.10;1.80;;;5.30;99.90;;;;;;6154758;23;20193;-78
2023/01/16 14:31:24;;;;;;;5.03;2.20;;;5.30;99.90;;;;;;6154076;23;20625;-78
2023/01/16 14:33:56;;;;;;;3.63;2.40;;;5.30;99.90;;;;;;6154821;23;20181;-76